Roscoe, Minnesota
Current Conditions -  °F | °C
As of 8:14 PM on Saturday 22 Nov 2014 (Local Time) from KPEX Reporting Station
Moderate Fog Moderate Fog  
Wind Chill: 24°   Ceiling: 100
Heat Index: 32°   Visibility: 0.5mi
Dew Point: 32°   Wind: 9mph
Humidity: 100%   Direction: 80°E
Pressure: 29.51"   Gusts: NA
Location:  45.43°N, 94.64°W
Report Text: KPEX 230214Z AUTO 08008KT 1/2SM FG OVC001 00/00 A2951 RMK AO2 T10010000
Loading
Personal Weather Stations






























Interactive Weather Map New forecast layout! Learn more

10-Day Weather Forecast

Advertisements
Track Severe Weather on mobile